createdAt,value
2023-05-02T00:01:16.920Z,101944.75
2023-05-02T00:03:44.148Z,101947.00
2023-05-02T00:06:12.205Z,101953.72
2023-05-02T00:08:39.157Z,101952.52
2023-05-02T00:11:06.058Z,101953.74
2023-05-02T00:13:32.904Z,101956.20
2023-05-02T00:15:59.821Z,101954.80
2023-05-02T00:18:27.059Z,101957.91
2023-05-02T00:20:55.295Z,101960.67
2023-05-02T00:23:22.248Z,101963.08
2023-05-02T00:25:49.262Z,101962.40
2023-05-02T00:28:16.127Z,101962.34
2023-05-02T00:30:46.584Z,101963.92
2023-05-02T00:33:15.097Z,101963.09
2023-05-02T00:35:42.280Z,101966.21
2023-05-02T00:38:09.522Z,101967.42
2023-05-02T00:40:46.498Z,101971.02
2023-05-02T00:43:14.096Z,101971.83
2023-05-02T00:45:41.843Z,101974.27
2023-05-02T00:48:11.754Z,101968.27
2023-05-02T00:50:42.950Z,101973.30
2023-05-02T00:53:10.556Z,101973.12
2023-05-02T00:55:37.689Z,101975.55
2023-05-02T00:58:11.908Z,101975.36
2023-05-02T01:01:00.828Z,101977.97
2023-05-02T01:03:42.570Z,101977.59
2023-05-02T01:06:12.197Z,101981.05
2023-05-02T01:08:52.886Z,101980.91
2023-05-02T01:11:27.034Z,101975.73
2023-05-02T01:13:53.906Z,101975.19
2023-05-02T01:16:21.234Z,101976.56
2023-05-02T01:18:48.328Z,101979.48
2023-05-02T01:21:15.584Z,101976.05
2023-05-02T01:23:57.741Z,101977.40
2023-05-02T01:26:33.792Z,101979.28
2023-05-02T01:29:04.852Z,101980.48
2023-05-02T01:31:43.715Z,101982.05
2023-05-02T01:34:11.125Z,101982.91
2023-05-02T01:36:43.067Z,101981.36
2023-05-02T01:39:11.098Z,101980.31
2023-05-02T01:41:38.281Z,101985.16
2023-05-02T01:44:05.187Z,101983.77
2023-05-02T01:46:34.180Z,101985.48
2023-05-02T01:49:02.657Z,101987.73
2023-05-02T01:51:32.013Z,101985.30
2023-05-02T01:53:59.927Z,101984.08
2023-05-02T01:56:26.865Z,101986.51
2023-05-02T01:58:54.099Z,101989.27
2023-05-02T02:01:21.026Z,101988.42
2023-05-02T02:03:47.917Z,101992.89
2023-05-02T02:06:14.866Z,101991.54
2023-05-02T02:08:42.011Z,101992.73
2023-05-02T02:11:10.244Z,101989.41
2023-05-02T02:13:44.836Z,101990.80
2023-05-02T02:16:11.772Z,101994.07
2023-05-02T02:18:38.913Z,101993.55
2023-05-02T02:21:09.864Z,101993.73
2023-05-02T02:23:36.997Z,101996.61
2023-05-02T02:26:04.109Z,101995.91
2023-05-02T02:28:30.987Z,101999.71
2023-05-02T02:30:57.961Z,102001.80
2023-05-02T02:33:26.167Z,102006.46
2023-05-02T02:36:01.084Z,102006.98
2023-05-02T02:38:52.824Z,102012.89
2023-05-02T02:41:23.633Z,102014.29
2023-05-02T02:43:53.571Z,102015.48
2023-05-02T02:46:23.684Z,102014.77
2023-05-02T02:49:19.704Z,102020.29
2023-05-02T02:52:05.848Z,102019.13
2023-05-02T02:54:42.378Z,102022.12
2023-05-02T02:57:33.969Z,102023.32
2023-05-02T03:00:33.361Z,102023.51
2023-05-02T03:03:00.705Z,102023.35
2023-05-02T03:05:27.734Z,102024.57
2023-05-02T03:07:55.969Z,102032.00
2023-05-02T03:10:23.129Z,102033.27
2023-05-02T03:12:50.201Z,102043.80
2023-05-02T03:15:36.409Z,102043.14
2023-05-02T03:18:03.721Z,102046.56
2023-05-02T03:20:30.676Z,102048.47
2023-05-02T03:22:59.079Z,102046.98
2023-05-02T03:25:26.017Z,102052.06
2023-05-02T03:27:54.257Z,102051.32
2023-05-02T03:30:21.282Z,102054.96
2023-05-02T03:32:48.253Z,102060.41
2023-05-02T03:35:16.328Z,102060.73
2023-05-02T03:37:43.531Z,102062.27
2023-05-02T03:40:10.856Z,102067.16
2023-05-02T03:42:41.458Z,102067.73
2023-05-02T03:45:14.786Z,102069.52
2023-05-02T03:47:42.376Z,102064.56
2023-05-02T03:50:09.713Z,102065.60
2023-05-02T03:52:39.289Z,102071.00
2023-05-02T03:55:07.943Z,102072.12
2023-05-02T03:57:35.077Z,102075.09
2023-05-02T04:00:02.787Z,102077.23
2023-05-02T04:02:38.682Z,102078.84
2023-05-02T04:05:08.782Z,102080.56
2023-05-02T04:07:36.374Z,102080.77
2023-05-02T04:10:05.835Z,102083.36
2023-05-02T04:12:36.753Z,102082.50
2023-05-02T04:15:04.181Z,102085.95
2023-05-02T04:17:31.136Z,102091.38
2023-05-02T04:19:58.444Z,102087.59
2023-05-02T04:22:27.701Z,102090.55
2023-05-02T04:25:00.706Z,102092.42
2023-05-02T04:27:28.687Z,102091.73
2023-05-02T04:29:56.495Z,102093.31
2023-05-02T04:32:23.608Z,102094.02
2023-05-02T04:34:50.821Z,102093.84
2023-05-02T04:37:18.336Z,102097.67
2023-05-02T04:39:46.488Z,102100.81
2023-05-02T04:42:23.913Z,102101.02
2023-05-02T04:45:08.101Z,102101.02
2023-05-02T04:47:34.990Z,102105.20
2023-05-02T04:50:02.198Z,102105.20
2023-05-02T04:52:30.340Z,102111.25
2023-05-02T04:54:57.541Z,102113.83
2023-05-02T04:57:24.936Z,102119.55
2023-05-02T04:59:55.506Z,102120.06
2023-05-02T05:02:23.267Z,102121.80
2023-05-02T05:04:50.499Z,102121.60
2023-05-02T05:07:18.771Z,102125.90
2023-05-02T05:09:47.023Z,102128.65
2023-05-02T05:12:14.162Z,102130.86
2023-05-02T05:14:41.406Z,102131.18
2023-05-02T05:17:08.342Z,102135.83
2023-05-02T05:19:35.372Z,102137.15
2023-05-02T05:22:02.368Z,102137.94
2023-05-02T05:24:29.344Z,102139.77
2023-05-02T05:26:57.698Z,102143.41
2023-05-02T05:29:24.704Z,102144.59
2023-05-02T05:31:51.857Z,102151.45
2023-05-02T05:34:20.309Z,102159.31
2023-05-02T05:36:48.320Z,102158.42
2023-05-02T05:39:16.880Z,102160.16
2023-05-02T05:41:46.738Z,102163.05
2023-05-02T05:44:14.000Z,102161.67
2023-05-02T05:46:40.940Z,102161.18
2023-05-02T05:49:09.758Z,102168.23
2023-05-02T05:51:37.011Z,102164.46
2023-05-02T05:54:04.354Z,102167.04
2023-05-02T05:56:31.656Z,102161.89
2023-05-02T05:59:09.689Z,102163.72
2023-05-02T06:01:43.563Z,102165.04
2023-05-02T06:04:12.291Z,102172.58
2023-05-02T06:06:42.643Z,102167.11
2023-05-02T06:09:09.895Z,102171.41
2023-05-02T06:11:38.625Z,102172.23
2023-05-02T06:14:06.568Z,102168.83
2023-05-02T06:16:36.684Z,102170.31
2023-05-02T06:19:03.949Z,102166.91
2023-05-02T06:21:31.535Z,102167.95
2023-05-02T06:24:01.857Z,102166.63
2023-05-02T06:26:29.028Z,102171.73
2023-05-02T06:28:59.257Z,102174.27
2023-05-02T06:31:26.303Z,102174.77
2023-05-02T06:33:53.454Z,102170.42
2023-05-02T06:36:22.774Z,102169.77
2023-05-02T06:38:50.679Z,102168.66
2023-05-02T06:41:18.444Z,102165.48
2023-05-02T06:43:49.709Z,102170.21
2023-05-02T06:46:17.645Z,102174.34
2023-05-02T06:48:44.780Z,102180.07
2023-05-02T06:51:12.036Z,102184.41
2023-05-02T06:53:39.195Z,102181.27
2023-05-02T06:56:08.256Z,102185.84
2023-05-02T06:58:38.578Z,102186.34
2023-05-02T07:01:05.859Z,102186.10
2023-05-02T07:03:37.443Z,102187.54
2023-05-02T07:06:06.121Z,102185.92
2023-05-02T07:08:33.050Z,102186.79
2023-05-02T07:11:00.489Z,102188.17
2023-05-02T07:13:27.588Z,102183.46
2023-05-02T07:15:54.709Z,102178.92
2023-05-02T07:18:22.293Z,102179.77
2023-05-02T07:20:55.363Z,102186.07
2023-05-02T07:23:27.171Z,102184.44
2023-05-02T07:25:54.229Z,102191.20
2023-05-02T07:28:21.643Z,102194.00
2023-05-02T07:30:51.885Z,102195.67
2023-05-02T07:33:19.105Z,102193.72
2023-05-02T07:35:46.205Z,102192.93
2023-05-02T07:38:13.786Z,102192.42
2023-05-02T07:40:41.078Z,102194.68
2023-05-02T07:43:09.930Z,102193.20
2023-05-02T07:45:38.154Z,102192.19
2023-05-02T07:48:05.431Z,102194.16
2023-05-02T07:50:32.459Z,102193.88
2023-05-02T07:53:02.044Z,102188.45
2023-05-02T07:55:30.675Z,102193.52
2023-05-02T07:57:57.831Z,102193.81
2023-05-02T08:00:24.946Z,102194.08
2023-05-02T08:02:52.402Z,102194.63
2023-05-02T08:05:19.795Z,102198.10
2023-05-02T08:07:47.151Z,102197.49
2023-05-02T08:10:14.132Z,102203.41
2023-05-02T08:12:42.033Z,102202.52
2023-05-02T08:15:10.728Z,102200.98
2023-05-02T08:17:42.350Z,102205.43
2023-05-02T08:20:13.335Z,102207.22
2023-05-02T08:22:40.755Z,102209.89
2023-05-02T08:25:09.062Z,102207.92
2023-05-02T08:27:37.011Z,102203.66
2023-05-02T08:30:04.854Z,102203.98
2023-05-02T08:32:33.163Z,102202.11
2023-05-02T08:35:00.242Z,102200.83
2023-05-02T08:37:30.102Z,102201.45
2023-05-02T08:40:05.148Z,102203.48
2023-05-02T08:42:37.661Z,102205.05
2023-05-02T08:45:07.464Z,102205.64
2023-05-02T08:47:34.564Z,102205.98
2023-05-02T08:50:06.202Z,102213.51
2023-05-02T08:52:34.249Z,102214.02
2023-05-02T08:55:02.263Z,102212.92
2023-05-02T08:57:30.815Z,102212.75
2023-05-02T08:59:58.611Z,102209.03
2023-05-02T09:02:53.656Z,102206.98
2023-05-02T09:05:21.280Z,102203.99
2023-05-02T09:07:49.245Z,102203.50
2023-05-02T09:10:16.695Z,102202.86
2023-05-02T09:12:43.837Z,102201.98
2023-05-02T09:15:20.795Z,102202.00
2023-05-02T09:17:48.919Z,102203.18
2023-05-02T09:20:16.772Z,102203.55
2023-05-02T09:22:53.004Z,102208.43
2023-05-02T09:25:21.185Z,102208.16
2023-05-02T09:27:55.524Z,102206.73
2023-05-02T09:30:24.265Z,102211.30
2023-05-02T09:32:51.712Z,102209.38
2023-05-02T09:35:23.982Z,102208.03
2023-05-02T09:37:55.648Z,102210.30
2023-05-02T09:40:23.736Z,102209.19
2023-05-02T09:42:51.603Z,102207.42
2023-05-02T09:45:28.361Z,102207.31
2023-05-02T09:48:02.475Z,102212.53
2023-05-02T09:50:38.684Z,102209.29
2023-05-02T09:53:12.284Z,102208.32
2023-05-02T09:55:39.845Z,102208.14
2023-05-02T09:58:07.059Z,102204.95
2023-05-02T10:00:48.382Z,102206.40
2023-05-02T10:03:22.914Z,102208.86
2023-05-02T10:05:51.543Z,102211.77
2023-05-02T10:08:19.142Z,102207.66
2023-05-02T10:10:50.778Z,102209.30
2023-05-02T10:13:18.087Z,102212.65
2023-05-02T10:15:49.561Z,102214.42
2023-05-02T10:18:22.384Z,102219.11
2023-05-02T10:21:05.652Z,102218.78
2023-05-02T10:23:32.753Z,102218.80
2023-05-02T10:26:00.377Z,102217.94
2023-05-02T10:28:28.141Z,102220.95
2023-05-02T10:30:55.583Z,102222.84
2023-05-02T10:33:23.141Z,102221.21
2023-05-02T10:35:51.647Z,102221.17
2023-05-02T10:38:22.515Z,102220.08
2023-05-02T10:40:58.146Z,102216.19
2023-05-02T10:43:34.714Z,102221.59
2023-05-02T10:46:03.852Z,102223.98
2023-05-02T10:48:31.868Z,102221.14
2023-05-02T10:51:01.914Z,102217.40
2023-05-02T10:53:33.882Z,102214.46
2023-05-02T10:56:18.238Z,102214.60
2023-05-02T10:58:46.171Z,102217.25
2023-05-02T11:01:28.988Z,102220.81
2023-05-02T11:04:12.045Z,102223.70
2023-05-02T11:06:57.155Z,102223.08
2023-05-02T11:09:29.400Z,102223.54
2023-05-02T11:12:00.676Z,102220.33
2023-05-02T11:14:31.123Z,102221.80
2023-05-02T11:17:01.446Z,102224.27
2023-05-02T11:19:31.395Z,102218.10
2023-05-02T11:22:28.284Z,102220.73
2023-05-02T11:24:55.329Z,102222.86
2023-05-02T11:27:33.654Z,102224.44
2023-05-02T11:30:10.727Z,102224.95
2023-05-02T11:32:44.167Z,102222.88
2023-05-02T11:35:32.350Z,102224.94
2023-05-02T11:38:06.867Z,102222.14
2023-05-02T11:40:34.074Z,102218.37
2023-05-02T11:43:01.546Z,102223.59
2023-05-02T11:45:38.019Z,102221.55
2023-05-02T11:48:07.169Z,102222.14
2023-05-02T11:50:48.794Z,102221.27
2023-05-02T11:53:29.356Z,102216.30
2023-05-02T11:56:01.362Z,102219.85
2023-05-02T11:58:35.351Z,102218.26
2023-05-02T12:01:15.695Z,102222.55
2023-05-02T12:03:43.136Z,102219.36
2023-05-02T12:06:20.775Z,102214.98
2023-05-02T12:08:49.589Z,102212.30
2023-05-02T12:11:17.246Z,102209.14
2023-05-02T12:13:48.456Z,102206.44
2023-05-02T12:16:19.630Z,102205.06
2023-05-02T12:18:47.571Z,102202.16
2023-05-02T12:21:15.104Z,102200.89
2023-05-02T12:23:42.544Z,102201.76
2023-05-02T12:26:32.094Z,102201.05
2023-05-02T12:29:04.774Z,102201.09
2023-05-02T12:31:33.607Z,102201.39
2023-05-02T12:34:03.855Z,102202.52
2023-05-02T12:36:34.242Z,102201.38
2023-05-02T12:39:02.302Z,102197.36
2023-05-02T12:41:33.128Z,102195.55
2023-05-02T12:44:01.176Z,102197.35
2023-05-02T12:46:28.664Z,102202.00
2023-05-02T12:49:06.803Z,102197.13
2023-05-02T12:51:34.779Z,102195.15
2023-05-02T12:54:03.661Z,102196.11
2023-05-02T12:56:39.588Z,102199.62
2023-05-02T12:59:08.165Z,102200.67
2023-05-02T13:01:36.165Z,102199.27
2023-05-02T13:04:06.343Z,102196.92
2023-05-02T13:06:34.027Z,102197.76
2023-05-02T13:09:03.291Z,102197.83
2023-05-02T13:11:30.728Z,102197.52
2023-05-02T13:14:00.194Z,102201.53
2023-05-02T13:16:27.332Z,102199.66
2023-05-02T13:18:54.787Z,102197.15
2023-05-02T13:21:24.842Z,102198.07
2023-05-02T13:23:55.563Z,102198.30
2023-05-02T13:26:22.697Z,102193.63
2023-05-02T13:28:52.404Z,102193.56
2023-05-02T13:31:19.841Z,102190.62
2023-05-02T13:33:47.012Z,102193.81
2023-05-02T13:36:16.638Z,102198.45
2023-05-02T13:38:44.900Z,102202.14
2023-05-02T13:41:13.189Z,102206.11
2023-05-02T13:43:40.866Z,102203.37
2023-05-02T13:46:08.673Z,102199.52
2023-05-02T13:48:38.662Z,102198.23
2023-05-02T13:51:06.022Z,102197.02
2023-05-02T13:53:33.482Z,102197.83
2023-05-02T13:56:03.979Z,102197.21
2023-05-02T13:58:34.806Z,102200.50
2023-05-02T14:01:02.475Z,102199.36
2023-05-02T14:03:29.964Z,102191.70
2023-05-02T14:05:58.416Z,102187.81
2023-05-02T14:08:49.613Z,102189.72
2023-05-02T14:11:26.630Z,102193.99
2023-05-02T14:14:05.959Z,102193.13
2023-05-02T14:16:33.076Z,102191.95
2023-05-02T14:19:00.178Z,102195.60
2023-05-02T14:21:28.140Z,102188.52
2023-05-02T14:23:55.255Z,102191.41
2023-05-02T14:26:22.488Z,102191.77
2023-05-02T14:28:49.892Z,102197.53
2023-05-02T14:31:17.274Z,102194.56
2023-05-02T14:33:45.706Z,102192.80
2023-05-02T14:36:13.120Z,102193.24
2023-05-02T14:38:46.524Z,102191.58
2023-05-02T14:41:14.404Z,102186.25
2023-05-02T14:43:41.471Z,102183.30
2023-05-02T14:46:08.477Z,102180.09
2023-05-02T14:48:35.574Z,102178.22
2023-05-02T14:51:06.638Z,102178.29
2023-05-02T14:53:33.836Z,102176.63
2023-05-02T14:56:00.943Z,102176.63
2023-05-02T14:58:28.233Z,102174.64
2023-05-02T15:00:55.304Z,102172.30
2023-05-02T15:03:27.471Z,102173.36
2023-05-02T15:05:55.570Z,102172.63
2023-05-02T15:08:22.862Z,102168.67
2023-05-02T15:10:49.978Z,102170.65
2023-05-02T15:13:17.003Z,102174.56
2023-05-02T15:15:46.961Z,102173.75
2023-05-02T15:18:13.823Z,102174.10
2023-05-02T15:20:41.129Z,102173.80
2023-05-02T15:23:08.001Z,102172.89
2023-05-02T15:25:34.979Z,102171.60
2023-05-02T15:28:03.204Z,102171.79
2023-05-02T15:30:30.216Z,102169.84
2023-05-02T15:32:57.116Z,102174.73
2023-05-02T15:35:24.452Z,102174.89
2023-05-02T15:37:51.446Z,102173.78
2023-05-02T15:40:18.693Z,102172.08
2023-05-02T15:42:46.070Z,102173.18
2023-05-02T15:45:15.911Z,102173.47
2023-05-02T15:47:42.905Z,102171.08
2023-05-02T15:50:11.173Z,102171.84
2023-05-02T15:52:38.359Z,102171.91
2023-05-02T15:55:05.768Z,102173.99
2023-05-02T15:57:32.821Z,102172.90
2023-05-02T16:00:00.090Z,102169.96
2023-05-02T16:02:27.342Z,102167.05
2023-05-02T16:04:54.349Z,102169.47
2023-05-02T16:07:21.414Z,102167.44
2023-05-02T16:09:48.409Z,102172.69
2023-05-02T16:12:15.463Z,102173.00
2023-05-02T16:14:42.466Z,102169.77
2023-05-02T16:17:09.584Z,102168.31
2023-05-02T16:19:36.772Z,102166.01
2023-05-02T16:22:03.717Z,102164.05
2023-05-02T16:24:30.645Z,102161.96
2023-05-02T16:26:57.725Z,102163.50
2023-05-02T16:29:24.637Z,102163.41
2023-05-02T16:31:51.647Z,102165.77
2023-05-02T16:34:18.676Z,102170.38
2023-05-02T16:36:46.845Z,102169.05
2023-05-02T16:39:14.049Z,102169.89
2023-05-02T16:41:41.087Z,102166.73
2023-05-02T16:44:08.082Z,102166.18
2023-05-02T16:46:35.053Z,102169.09
2023-05-02T16:49:02.012Z,102174.83
2023-05-02T16:51:31.372Z,102178.14
2023-05-02T16:53:58.277Z,102177.68
2023-05-02T16:56:25.422Z,102176.23
2023-05-02T16:58:52.273Z,102177.85
2023-05-02T17:01:23.731Z,102176.04
2023-05-02T17:03:50.828Z,102179.70
2023-05-02T17:06:17.750Z,102182.52
2023-05-02T17:08:44.664Z,102183.05
2023-05-02T17:11:12.170Z,102181.10
2023-05-02T17:13:39.300Z,102179.45
2023-05-02T17:16:08.433Z,102181.11
2023-05-02T17:18:35.960Z,102181.83
2023-05-02T17:21:04.062Z,102182.89
2023-05-02T17:23:37.056Z,102188.17
2023-05-02T17:26:05.654Z,102190.89
2023-05-02T17:28:32.640Z,102190.52
2023-05-02T17:31:00.024Z,102191.05
2023-05-02T17:33:27.628Z,102188.57
2023-05-02T17:35:54.618Z,102194.00
2023-05-02T17:38:21.532Z,102195.98
2023-05-02T17:40:48.630Z,102199.34
2023-05-02T17:43:16.790Z,102203.96
2023-05-02T17:45:43.785Z,102202.84
2023-05-02T17:48:11.362Z,102201.78
2023-05-02T17:50:41.804Z,102207.98
2023-05-02T17:53:09.294Z,102212.48
2023-05-02T17:55:36.589Z,102213.91
2023-05-02T17:58:03.827Z,102214.44
2023-05-02T18:00:30.874Z,102214.15
2023-05-02T18:02:57.856Z,102219.18
2023-05-02T18:05:26.371Z,102218.16
2023-05-02T18:07:53.338Z,102218.05
2023-05-02T18:10:20.251Z,102216.95
2023-05-02T18:12:47.228Z,102219.56
2023-05-02T18:15:14.226Z,102226.23
2023-05-02T18:17:42.102Z,102227.27
2023-05-02T18:20:10.213Z,102227.83
2023-05-02T18:22:38.122Z,102228.09
2023-05-02T18:25:05.781Z,102228.94
2023-05-02T18:27:33.133Z,102229.20
2023-05-02T18:30:00.210Z,102225.86
2023-05-02T18:32:27.289Z,102228.70
2023-05-02T18:34:54.157Z,102230.85
2023-05-02T18:37:22.514Z,102225.80
2023-05-02T18:39:49.679Z,102229.61
2023-05-02T18:42:16.578Z,102231.12
2023-05-02T18:44:43.426Z,102227.98
2023-05-02T18:47:11.062Z,102229.27
2023-05-02T18:49:38.016Z,102229.65
2023-05-02T18:52:05.327Z,102229.23
2023-05-02T18:54:33.644Z,102223.83
2023-05-02T18:57:02.206Z,102229.19
2023-05-02T18:59:29.791Z,102229.48
2023-05-02T19:01:58.317Z,102225.38
2023-05-02T19:04:25.297Z,102225.75
2023-05-02T19:06:52.275Z,102224.19
2023-05-02T19:09:19.926Z,102226.98
2023-05-02T19:11:46.915Z,102224.91
2023-05-02T19:14:14.170Z,102221.83
2023-05-02T19:16:41.601Z,102220.34
2023-05-02T19:19:08.560Z,102219.15
2023-05-02T19:21:35.574Z,102222.79
2023-05-02T19:24:02.920Z,102224.05
2023-05-02T19:26:30.021Z,102223.18
2023-05-02T19:28:57.276Z,102225.90
2023-05-02T19:31:24.290Z,102226.55
2023-05-02T19:33:51.903Z,102228.65
2023-05-02T19:36:19.647Z,102227.61
2023-05-02T19:38:59.575Z,102221.48
2023-05-02T19:41:26.476Z,102220.11
2023-05-02T19:43:53.400Z,102220.99
2023-05-02T19:46:20.556Z,102221.94
2023-05-02T19:48:47.657Z,102223.24
2023-05-02T19:51:14.534Z,102220.80
2023-05-02T19:53:41.468Z,102223.33
2023-05-02T19:56:08.392Z,102224.74
2023-05-02T19:58:35.544Z,102226.30
2023-05-02T20:01:03.465Z,102229.08
2023-05-02T20:03:30.637Z,102231.30
2023-05-02T20:05:58.591Z,102229.02
2023-05-02T20:08:28.086Z,102230.59
2023-05-02T20:10:55.902Z,102227.80
2023-05-02T20:13:22.850Z,102225.39
2023-05-02T20:15:50.904Z,102229.77
2023-05-02T20:18:17.854Z,102225.26
2023-05-02T20:20:44.796Z,102222.00
2023-05-02T20:23:12.235Z,102221.65
2023-05-02T20:25:40.320Z,102222.38
2023-05-02T20:28:08.087Z,102219.97
2023-05-02T20:30:35.718Z,102221.19
2023-05-02T20:33:14.116Z,102222.20
2023-05-02T20:35:42.948Z,102222.11
2023-05-02T20:38:10.005Z,102223.83
2023-05-02T20:40:40.331Z,102223.28
2023-05-02T20:43:07.914Z,102224.65
2023-05-02T20:45:34.840Z,102223.67
2023-05-02T20:48:01.755Z,102222.63
2023-05-02T20:50:28.861Z,102233.34
2023-05-02T20:52:55.841Z,102234.48
2023-05-02T20:55:23.105Z,102236.75
2023-05-02T20:57:53.310Z,102239.66
2023-05-02T21:00:22.515Z,102240.22
2023-05-02T21:02:49.795Z,102240.98
2023-05-02T21:05:16.911Z,102245.39
2023-05-02T21:07:44.833Z,102245.52
2023-05-02T21:10:11.868Z,102248.52
2023-05-02T21:12:38.882Z,102250.30
2023-05-02T21:15:07.396Z,102251.40
2023-05-02T21:17:34.406Z,102248.80
2023-05-02T21:20:01.519Z,102249.49
2023-05-02T21:22:28.709Z,102247.42
2023-05-02T21:24:55.995Z,102249.20
2023-05-02T21:27:23.224Z,102254.43
2023-05-02T21:29:50.377Z,102254.39
2023-05-02T21:32:17.403Z,102258.66
2023-05-02T21:34:44.618Z,102260.52
2023-05-02T21:37:11.634Z,102261.59
2023-05-02T21:39:38.774Z,102262.46
2023-05-02T21:42:06.102Z,102261.63
2023-05-02T21:44:33.000Z,102261.04
2023-05-02T21:47:00.064Z,102262.44
2023-05-02T21:49:29.358Z,102263.13
2023-05-02T21:51:58.324Z,102267.91
2023-05-02T21:54:25.444Z,102265.11
2023-05-02T21:56:53.858Z,102265.80
2023-05-02T21:59:21.096Z,102264.71
2023-05-02T22:01:48.184Z,102265.58
2023-05-02T22:04:15.213Z,102263.46
2023-05-02T22:06:43.021Z,102265.17
2023-05-02T22:09:10.475Z,102266.36
2023-05-02T22:11:37.482Z,102268.77
2023-05-02T22:14:04.484Z,102270.08
2023-05-02T22:16:31.489Z,102268.19
2023-05-02T22:18:58.530Z,102273.58
2023-05-02T22:21:25.452Z,102275.70
2023-05-02T22:23:52.517Z,102276.70
2023-05-02T22:26:19.734Z,102272.70
2023-05-02T22:28:47.010Z,102275.47
2023-05-02T22:31:15.497Z,102278.61
2023-05-02T22:33:43.045Z,102286.08
2023-05-02T22:36:10.051Z,102283.48
2023-05-02T22:38:39.770Z,102279.11
2023-05-02T22:41:06.920Z,102282.14
2023-05-02T22:43:33.797Z,102278.34
2023-05-02T22:46:00.869Z,102280.27
2023-05-02T22:48:27.923Z,102282.85
2023-05-02T22:50:55.268Z,102278.38
2023-05-02T22:53:23.610Z,102280.67
2023-05-02T22:55:51.217Z,102281.38
2023-05-02T22:58:18.219Z,102286.96
2023-05-02T23:00:45.181Z,102288.68
2023-05-02T23:03:12.739Z,102291.98
2023-05-02T23:05:39.911Z,102289.58
2023-05-02T23:08:06.796Z,102289.06
2023-05-02T23:10:33.873Z,102285.09
2023-05-02T23:13:00.914Z,102283.34
2023-05-02T23:15:27.820Z,102282.67
2023-05-02T23:17:54.807Z,102286.34
2023-05-02T23:20:23.206Z,102283.70
2023-05-02T23:22:50.234Z,102284.23
2023-05-02T23:25:17.310Z,102283.73
2023-05-02T23:27:44.356Z,102283.88
2023-05-02T23:30:11.700Z,102283.37
2023-05-02T23:32:39.578Z,102284.42
2023-05-02T23:35:07.242Z,102281.41
2023-05-02T23:37:34.127Z,102278.48
2023-05-02T23:40:01.486Z,102280.22
2023-05-02T23:42:29.899Z,102276.42
2023-05-02T23:44:57.956Z,102275.23
2023-05-02T23:47:28.260Z,102270.53
2023-05-02T23:49:55.262Z,102271.21
2023-05-02T23:52:22.128Z,102275.06
2023-05-02T23:54:49.204Z,102276.65
2023-05-02T23:57:16.128Z,102272.81
2023-05-02T23:59:43.013Z,102267.64
